sensor_id;sensor_type;location;lat;lon;timestamp;temperature;humidity
73277;DHT22;61501;43.316;5.372;2023-05-21T00:00:06;16.50;99.90
73277;DHT22;61501;43.316;5.372;2023-05-21T00:02:41;16.50;99.90
73277;DHT22;61501;43.316;5.372;2023-05-21T00:05:07;16.50;99.90
73277;DHT22;61501;43.316;5.372;2023-05-21T00:07:41;16.50;99.90
73277;DHT22;61501;43.316;5.372;2023-05-21T00:10:07;16.60;99.90
73277;DHT22;61501;43.316;5.372;2023-05-21T00:12:33;16.50;99.90
73277;DHT22;61501;43.316;5.372;2023-05-21T00:14:59;16.60;99.90
73277;DHT22;61501;43.316;5.372;2023-05-21T00:17:29;16.60;99.90
73277;DHT22;61501;43.316;5.372;2023-05-21T00:19:57;16.60;99.90
73277;DHT22;61501;43.316;5.372;2023-05-21T00:22:24;16.50;99.90
73277;DHT22;61501;43.316;5.372;2023-05-21T00:24:56;16.60;99.90
73277;DHT22;61501;43.316;5.372;2023-05-21T00:27:21;16.60;99.90
73277;DHT22;61501;43.316;5.372;2023-05-21T00:29:47;16.50;99.90
73277;DHT22;61501;43.316;5.372;2023-05-21T00:32:13;16.50;99.90
73277;DHT22;61501;43.316;5.372;2023-05-21T00:34:41;16.40;99.90
73277;DHT22;61501;43.316;5.372;2023-05-21T00:40:23;16.40;99.90
73277;DHT22;61501;43.316;5.372;2023-05-21T00:42:49;16.40;99.90
73277;DHT22;61501;43.316;5.372;2023-05-21T00:45:20;16.40;99.90
73277;DHT22;61501;43.316;5.372;2023-05-21T00:47:48;16.30;99.90
73277;DHT22;61501;43.316;5.372;2023-05-21T00:50:19;16.30;99.90
73277;DHT22;61501;43.316;5.372;2023-05-21T00:52:46;16.20;99.90
73277;DHT22;61501;43.316;5.372;2023-05-21T00:55:13;16.20;99.90
73277;DHT22;61501;43.316;5.372;2023-05-21T00:57:40;16.20;99.90
73277;DHT22;61501;43.316;5.372;2023-05-21T01:00:07;16.20;99.90
73277;DHT22;61501;43.316;5.372;2023-05-21T01:02:37;16.20;99.90
73277;DHT22;61501;43.316;5.372;2023-05-21T01:05:12;16.20;99.90
73277;DHT22;61501;43.316;5.372;2023-05-21T01:07:46;16.20;99.90
73277;DHT22;61501;43.316;5.372;2023-05-21T01:10:15;16.20;99.90
73277;DHT22;61501;43.316;5.372;2023-05-21T01:12:50;16.20;99.90
73277;DHT22;61501;43.316;5.372;2023-05-21T01:15:19;16.20;99.90
73277;DHT22;61501;43.316;5.372;2023-05-21T01:17:45;16.20;99.90
73277;DHT22;61501;43.316;5.372;2023-05-21T01:20:16;16.20;99.90
73277;DHT22;61501;43.316;5.372;2023-05-21T01:22:53;16.20;99.90
73277;DHT22;61501;43.316;5.372;2023-05-21T01:25:25;16.10;99.90
73277;DHT22;61501;43.316;5.372;2023-05-21T01:27:57;16.10;99.90
73277;DHT22;61501;43.316;5.372;2023-05-21T01:30:33;16.10;99.90
73277;DHT22;61501;43.316;5.372;2023-05-21T01:33:16;16.20;99.90
73277;DHT22;61501;43.316;5.372;2023-05-21T01:39:07;16.10;99.90
73277;DHT22;61501;43.316;5.372;2023-05-21T01:41:52;16.20;99.90
73277;DHT22;61501;43.316;5.372;2023-05-21T01:44:31;16.20;99.90
73277;DHT22;61501;43.316;5.372;2023-05-21T01:47:04;16.10;99.90
73277;DHT22;61501;43.316;5.372;2023-05-21T01:49:40;16.10;99.90
73277;DHT22;61501;43.316;5.372;2023-05-21T01:52:26;16.10;99.90
73277;DHT22;61501;43.316;5.372;2023-05-21T01:54:59;16.00;99.90
73277;DHT22;61501;43.316;5.372;2023-05-21T01:57:43;16.10;99.90
73277;DHT22;61501;43.316;5.372;2023-05-21T02:00:12;16.10;99.90
73277;DHT22;61501;43.316;5.372;2023-05-21T02:02:38;16.20;99.90
73277;DHT22;61501;43.316;5.372;2023-05-21T02:05:13;16.10;99.90
73277;DHT22;61501;43.316;5.372;2023-05-21T02:08:06;16.10;99.90
73277;DHT22;61501;43.316;5.372;2023-05-21T02:10:36;16.10;99.90
73277;DHT22;61501;43.316;5.372;2023-05-21T02:13:01;16.20;99.90
73277;DHT22;61501;43.316;5.372;2023-05-21T02:15:27;16.10;99.90
73277;DHT22;61501;43.316;5.372;2023-05-21T02:18:02;16.10;99.90
73277;DHT22;61501;43.316;5.372;2023-05-21T02:21:18;16.10;99.90
73277;DHT22;61501;43.316;5.372;2023-05-21T02:24:03;16.10;99.90
73277;DHT22;61501;43.316;5.372;2023-05-21T02:26:32;16.00;99.90
73277;DHT22;61501;43.316;5.372;2023-05-21T02:29:01;16.00;99.90
73277;DHT22;61501;43.316;5.372;2023-05-21T02:31:47;16.10;99.90
73277;DHT22;61501;43.316;5.372;2023-05-21T02:34:15;16.10;99.90
73277;DHT22;61501;43.316;5.372;2023-05-21T02:36:49;16.10;99.90
73277;DHT22;61501;43.316;5.372;2023-05-21T02:39:18;16.00;99.90
73277;DHT22;61501;43.316;5.372;2023-05-21T02:41:47;16.00;99.90
73277;DHT22;61501;43.316;5.372;2023-05-21T02:44:15;16.00;99.90
73277;DHT22;61501;43.316;5.372;2023-05-21T02:46:46;16.00;99.90
73277;DHT22;61501;43.316;5.372;2023-05-21T02:49:15;16.00;99.90
73277;DHT22;61501;43.316;5.372;2023-05-21T02:51:40;16.00;99.90
73277;DHT22;61501;43.316;5.372;2023-05-21T02:54:29;16.00;99.90
73277;DHT22;61501;43.316;5.372;2023-05-21T02:56:54;16.10;99.90
73277;DHT22;61501;43.316;5.372;2023-05-21T02:59:21;16.10;99.90
73277;DHT22;61501;43.316;5.372;2023-05-21T03:01:46;16.10;99.90
73277;DHT22;61501;43.316;5.372;2023-05-21T03:04:14;16.10;99.90
73277;DHT22;61501;43.316;5.372;2023-05-21T03:06:48;16.10;99.90
73277;DHT22;61501;43.316;5.372;2023-05-21T03:09:16;16.20;99.90
73277;DHT22;61501;43.316;5.372;2023-05-21T03:11:44;16.20;99.90
73277;DHT22;61501;43.316;5.372;2023-05-21T03:14:13;16.30;99.90
73277;DHT22;61501;43.316;5.372;2023-05-21T03:16:41;16.30;99.90
73277;DHT22;61501;43.316;5.372;2023-05-21T03:19:08;16.30;99.90
73277;DHT22;61501;43.316;5.372;2023-05-21T03:21:34;16.20;99.90
73277;DHT22;61501;43.316;5.372;2023-05-21T03:24:01;16.30;99.90
73277;DHT22;61501;43.316;5.372;2023-05-21T03:26:27;16.30;99.90
73277;DHT22;61501;43.316;5.372;2023-05-21T03:29:16;16.30;99.90
73277;DHT22;61501;43.316;5.372;2023-05-21T03:32:05;16.20;99.90
73277;DHT22;61501;43.316;5.372;2023-05-21T03:34:33;16.20;99.90
73277;DHT22;61501;43.316;5.372;2023-05-21T03:36:59;16.20;99.90
73277;DHT22;61501;43.316;5.372;2023-05-21T03:39:28;16.10;99.90
73277;DHT22;61501;43.316;5.372;2023-05-21T03:41:56;16.10;99.90
73277;DHT22;61501;43.316;5.372;2023-05-21T03:44:31;16.00;99.90
73277;DHT22;61501;43.316;5.372;2023-05-21T03:47:11;16.00;99.90
73277;DHT22;61501;43.316;5.372;2023-05-21T03:49:55;16.10;99.90
73277;DHT22;61501;43.316;5.372;2023-05-21T03:52:23;16.10;99.90
73277;DHT22;61501;43.316;5.372;2023-05-21T03:54:49;16.00;99.90
73277;DHT22;61501;43.316;5.372;2023-05-21T03:57:21;16.00;99.90
73277;DHT22;61501;43.316;5.372;2023-05-21T03:59:46;16.00;99.90
73277;DHT22;61501;43.316;5.372;2023-05-21T04:02:12;16.00;99.90
73277;DHT22;61501;43.316;5.372;2023-05-21T04:04:40;16.00;99.90
73277;DHT22;61501;43.316;5.372;2023-05-21T04:07:17;16.00;99.90
73277;DHT22;61501;43.316;5.372;2023-05-21T04:09:49;16.00;99.90
73277;DHT22;61501;43.316;5.372;2023-05-21T04:12:15;16.00;99.90
73277;DHT22;61501;43.316;5.372;2023-05-21T04:14:43;15.90;99.90
73277;DHT22;61501;43.316;5.372;2023-05-21T04:17:12;15.90;99.90
73277;DHT22;61501;43.316;5.372;2023-05-21T04:19:37;15.80;99.90
73277;DHT22;61501;43.316;5.372;2023-05-21T04:22:21;15.80;99.90
73277;DHT22;61501;43.316;5.372;2023-05-21T04:24:49;15.80;99.90
73277;DHT22;61501;43.316;5.372;2023-05-21T04:27:15;15.80;99.90
73277;DHT22;61501;43.316;5.372;2023-05-21T04:29:41;15.80;99.90
73277;DHT22;61501;43.316;5.372;2023-05-21T04:32:10;15.80;99.90
73277;DHT22;61501;43.316;5.372;2023-05-21T04:34:47;15.80;99.90
73277;DHT22;61501;43.316;5.372;2023-05-21T04:37:13;15.70;99.90
73277;DHT22;61501;43.316;5.372;2023-05-21T04:39:42;15.70;99.90
73277;DHT22;61501;43.316;5.372;2023-05-21T04:42:08;15.70;99.90
73277;DHT22;61501;43.316;5.372;2023-05-21T04:44:35;15.70;99.90
73277;DHT22;61501;43.316;5.372;2023-05-21T04:47:02;15.70;99.90
73277;DHT22;61501;43.316;5.372;2023-05-21T04:49:28;15.70;99.90
73277;DHT22;61501;43.316;5.372;2023-05-21T04:51:54;15.70;99.90
73277;DHT22;61501;43.316;5.372;2023-05-21T04:54:25;15.70;99.90
73277;DHT22;61501;43.316;5.372;2023-05-21T04:57:09;15.80;99.90
73277;DHT22;61501;43.316;5.372;2023-05-21T04:59:37;15.70;99.90
73277;DHT22;61501;43.316;5.372;2023-05-21T05:02:09;15.80;99.90
73277;DHT22;61501;43.316;5.372;2023-05-21T05:04:38;15.80;99.90
73277;DHT22;61501;43.316;5.372;2023-05-21T05:07:06;15.70;99.90
73277;DHT22;61501;43.316;5.372;2023-05-21T05:09:59;15.70;99.90
73277;DHT22;61501;43.316;5.372;2023-05-21T05:12:24;15.70;99.90
73277;DHT22;61501;43.316;5.372;2023-05-21T05:14:50;15.80;99.90
73277;DHT22;61501;43.316;5.372;2023-05-21T05:17:18;15.80;99.90
73277;DHT22;61501;43.316;5.372;2023-05-21T05:19:47;15.80;99.90
73277;DHT22;61501;43.316;5.372;2023-05-21T05:22:13;15.80;99.90
73277;DHT22;61501;43.316;5.372;2023-05-21T05:24:38;15.90;99.90
73277;DHT22;61501;43.316;5.372;2023-05-21T05:27:07;15.90;99.90
73277;DHT22;61501;43.316;5.372;2023-05-21T05:29:39;15.90;99.90
73277;DHT22;61501;43.316;5.372;2023-05-21T05:35:31;15.80;99.90
73277;DHT22;61501;43.316;5.372;2023-05-21T05:37:57;15.80;99.90
73277;DHT22;61501;43.316;5.372;2023-05-21T05:40:22;15.80;99.90
73277;DHT22;61501;43.316;5.372;2023-05-21T05:43:06;15.90;99.90
73277;DHT22;61501;43.316;5.372;2023-05-21T05:45:47;15.90;99.90
73277;DHT22;61501;43.316;5.372;2023-05-21T05:48:42;16.00;99.90
73277;DHT22;61501;43.316;5.372;2023-05-21T05:51:13;16.00;99.90
73277;DHT22;61501;43.316;5.372;2023-05-21T05:53:39;16.00;99.90
73277;DHT22;61501;43.316;5.372;2023-05-21T05:56:14;16.10;99.90
73277;DHT22;61501;43.316;5.372;2023-05-21T05:58:41;16.20;99.90
73277;DHT22;61501;43.316;5.372;2023-05-21T06:01:12;16.20;99.90
73277;DHT22;61501;43.316;5.372;2023-05-21T06:03:38;16.20;99.90
73277;DHT22;61501;43.316;5.372;2023-05-21T06:06:06;16.20;99.90
73277;DHT22;61501;43.316;5.372;2023-05-21T06:08:31;16.10;99.90
73277;DHT22;61501;43.316;5.372;2023-05-21T06:14:24;16.30;99.90
73277;DHT22;61501;43.316;5.372;2023-05-21T06:16:54;16.40;99.90
73277;DHT22;61501;43.316;5.372;2023-05-21T06:19:26;16.40;99.90
73277;DHT22;61501;43.316;5.372;2023-05-21T06:21:52;16.50;99.90
73277;DHT22;61501;43.316;5.372;2023-05-21T06:24:17;16.40;99.90
73277;DHT22;61501;43.316;5.372;2023-05-21T06:26:46;16.40;99.90
73277;DHT22;61501;43.316;5.372;2023-05-21T06:29:11;16.30;99.90
73277;DHT22;61501;43.316;5.372;2023-05-21T06:31:58;16.40;99.90
73277;DHT22;61501;43.316;5.372;2023-05-21T06:34:24;16.30;99.90
73277;DHT22;61501;43.316;5.372;2023-05-21T06:36:53;16.30;99.90
73277;DHT22;61501;43.316;5.372;2023-05-21T06:39:18;16.20;99.90
73277;DHT22;61501;43.316;5.372;2023-05-21T06:42:13;16.30;99.90
73277;DHT22;61501;43.316;5.372;2023-05-21T06:47:40;16.20;99.90
73277;DHT22;61501;43.316;5.372;2023-05-21T06:50:12;16.20;99.90
73277;DHT22;61501;43.316;5.372;2023-05-21T06:52:45;16.10;99.90
73277;DHT22;61501;43.316;5.372;2023-05-21T06:55:19;16.00;99.90
73277;DHT22;61501;43.316;5.372;2023-05-21T06:57:51;16.10;99.90
73277;DHT22;61501;43.316;5.372;2023-05-21T07:00:17;16.10;99.90
73277;DHT22;61501;43.316;5.372;2023-05-21T07:02:45;16.20;99.90
73277;DHT22;61501;43.316;5.372;2023-05-21T07:05:11;16.10;99.90
73277;DHT22;61501;43.316;5.372;2023-05-21T07:07:37;16.10;99.90
73277;DHT22;61501;43.316;5.372;2023-05-21T07:10:06;16.10;99.90
73277;DHT22;61501;43.316;5.372;2023-05-21T07:12:32;16.10;99.90
73277;DHT22;61501;43.316;5.372;2023-05-21T07:14:58;16.20;99.90
73277;DHT22;61501;43.316;5.372;2023-05-21T07:17:24;16.20;99.90
73277;DHT22;61501;43.316;5.372;2023-05-21T07:19:49;16.20;99.90
73277;DHT22;61501;43.316;5.372;2023-05-21T07:22:15;16.20;99.90
73277;DHT22;61501;43.316;5.372;2023-05-21T07:24:40;16.20;99.90
73277;DHT22;61501;43.316;5.372;2023-05-21T07:27:06;16.30;99.90
73277;DHT22;61501;43.316;5.372;2023-05-21T07:29:32;16.40;99.90
73277;DHT22;61501;43.316;5.372;2023-05-21T07:31:58;16.50;99.90
73277;DHT22;61501;43.316;5.372;2023-05-21T07:34:24;16.40;99.90
73277;DHT22;61501;43.316;5.372;2023-05-21T07:36:51;16.50;99.90
73277;DHT22;61501;43.316;5.372;2023-05-21T07:39:16;16.50;99.90
73277;DHT22;61501;43.316;5.372;2023-05-21T07:41:43;16.60;99.90
73277;DHT22;61501;43.316;5.372;2023-05-21T07:44:11;16.60;99.90
73277;DHT22;61501;43.316;5.372;2023-05-21T07:46:36;16.60;99.90
73277;DHT22;61501;43.316;5.372;2023-05-21T07:49:02;16.50;99.90
73277;DHT22;61501;43.316;5.372;2023-05-21T07:51:28;16.50;99.90
73277;DHT22;61501;43.316;5.372;2023-05-21T07:53:53;16.50;99.90
73277;DHT22;61501;43.316;5.372;2023-05-21T07:56:19;16.60;99.90
73277;DHT22;61501;43.316;5.372;2023-05-21T07:58:45;16.80;99.90
73277;DHT22;61501;43.316;5.372;2023-05-21T08:01:12;16.90;99.90
73277;DHT22;61501;43.316;5.372;2023-05-21T08:03:42;17.00;99.90
73277;DHT22;61501;43.316;5.372;2023-05-21T08:06:11;17.10;99.90
73277;DHT22;61501;43.316;5.372;2023-05-21T08:08:36;17.10;99.90
73277;DHT22;61501;43.316;5.372;2023-05-21T08:11:02;17.10;99.90
73277;DHT22;61501;43.316;5.372;2023-05-21T08:13:30;17.20;99.90
73277;DHT22;61501;43.316;5.372;2023-05-21T08:15:55;17.30;99.90
73277;DHT22;61501;43.316;5.372;2023-05-21T08:18:21;17.50;99.90
73277;DHT22;61501;43.316;5.372;2023-05-21T08:20:48;17.60;99.90
73277;DHT22;61501;43.316;5.372;2023-05-21T08:23:14;17.70;99.90
73277;DHT22;61501;43.316;5.372;2023-05-21T08:25:40;17.80;99.90
73277;DHT22;61501;43.316;5.372;2023-05-21T08:28:06;17.90;99.90
73277;DHT22;61501;43.316;5.372;2023-05-21T08:30:31;17.90;99.90
73277;DHT22;61501;43.316;5.372;2023-05-21T08:32:57;17.80;99.90
73277;DHT22;61501;43.316;5.372;2023-05-21T08:35:23;17.70;99.90
73277;DHT22;61501;43.316;5.372;2023-05-21T08:37:48;17.70;99.90
73277;DHT22;61501;43.316;5.372;2023-05-21T08:40:14;17.80;99.90
73277;DHT22;61501;43.316;5.372;2023-05-21T08:42:44;17.80;99.90
73277;DHT22;61501;43.316;5.372;2023-05-21T08:45:13;17.80;99.90
73277;DHT22;61501;43.316;5.372;2023-05-21T08:47:45;17.80;99.90
73277;DHT22;61501;43.316;5.372;2023-05-21T08:50:16;17.80;99.90
73277;DHT22;61501;43.316;5.372;2023-05-21T08:52:44;17.80;99.90
73277;DHT22;61501;43.316;5.372;2023-05-21T08:55:10;18.00;99.90
73277;DHT22;61501;43.316;5.372;2023-05-21T08:57:36;17.90;99.90
73277;DHT22;61501;43.316;5.372;2023-05-21T09:00:06;17.90;99.90
73277;DHT22;61501;43.316;5.372;2023-05-21T09:02:37;17.70;99.90
73277;DHT22;61501;43.316;5.372;2023-05-21T09:05:05;17.60;99.90
73277;DHT22;61501;43.316;5.372;2023-05-21T09:07:41;17.60;99.90
73277;DHT22;61501;43.316;5.372;2023-05-21T09:10:12;17.60;99.90
73277;DHT22;61501;43.316;5.372;2023-05-21T09:12:38;17.60;99.90
73277;DHT22;61501;43.316;5.372;2023-05-21T09:15:05;17.70;99.90
73277;DHT22;61501;43.316;5.372;2023-05-21T09:17:31;17.80;99.90
73277;DHT22;61501;43.316;5.372;2023-05-21T09:20:10;17.90;99.90
73277;DHT22;61501;43.316;5.372;2023-05-21T09:22:43;17.90;99.90
73277;DHT22;61501;43.316;5.372;2023-05-21T09:25:11;18.00;99.90
73277;DHT22;61501;43.316;5.372;2023-05-21T09:27:37;17.80;99.90
73277;DHT22;61501;43.316;5.372;2023-05-21T09:30:06;17.70;99.90
73277;DHT22;61501;43.316;5.372;2023-05-21T09:32:33;17.50;99.90
73277;DHT22;61501;43.316;5.372;2023-05-21T09:35:09;17.40;99.90
73277;DHT22;61501;43.316;5.372;2023-05-21T09:37:42;17.30;99.90
73277;DHT22;61501;43.316;5.372;2023-05-21T09:40:11;17.30;99.90
73277;DHT22;61501;43.316;5.372;2023-05-21T09:42:42;17.20;99.90
73277;DHT22;61501;43.316;5.372;2023-05-21T09:45:10;17.20;99.90
73277;DHT22;61501;43.316;5.372;2023-05-21T09:47:43;17.20;99.90
73277;DHT22;61501;43.316;5.372;2023-05-21T09:50:10;17.20;99.90
73277;DHT22;61501;43.316;5.372;2023-05-21T09:52:36;17.30;99.90
73277;DHT22;61501;43.316;5.372;2023-05-21T09:55:07;17.40;99.90
73277;DHT22;61501;43.316;5.372;2023-05-21T09:57:42;17.40;99.90
73277;DHT22;61501;43.316;5.372;2023-05-21T10:00:22;17.40;99.90
73277;DHT22;61501;43.316;5.372;2023-05-21T10:02:56;17.50;99.90
73277;DHT22;61501;43.316;5.372;2023-05-21T10:05:28;17.50;99.90
73277;DHT22;61501;43.316;5.372;2023-05-21T10:08:02;17.40;99.90
73277;DHT22;61501;43.316;5.372;2023-05-21T10:10:29;17.50;99.90
73277;DHT22;61501;43.316;5.372;2023-05-21T10:13:03;17.50;99.90
73277;DHT22;61501;43.316;5.372;2023-05-21T10:15:33;17.50;99.90
73277;DHT22;61501;43.316;5.372;2023-05-21T10:18:00;17.60;99.90
73277;DHT22;61501;43.316;5.372;2023-05-21T10:20:28;17.60;99.90
73277;DHT22;61501;43.316;5.372;2023-05-21T10:22:54;17.70;99.90
73277;DHT22;61501;43.316;5.372;2023-05-21T10:25:21;17.80;99.90
73277;DHT22;61501;43.316;5.372;2023-05-21T10:27:47;17.80;99.90
73277;DHT22;61501;43.316;5.372;2023-05-21T10:30:14;17.80;99.90
73277;DHT22;61501;43.316;5.372;2023-05-21T10:32:40;17.90;99.90
73277;DHT22;61501;43.316;5.372;2023-05-21T10:35:08;17.80;99.90
73277;DHT22;61501;43.316;5.372;2023-05-21T10:37:35;17.80;99.90
73277;DHT22;61501;43.316;5.372;2023-05-21T10:40:01;17.70;99.90
73277;DHT22;61501;43.316;5.372;2023-05-21T10:45:16;17.80;99.90
73277;DHT22;61501;43.316;5.372;2023-05-21T10:53:36;18.00;99.90
73277;DHT22;61501;43.316;5.372;2023-05-21T10:56:23;18.00;99.90
73277;DHT22;61501;43.316;5.372;2023-05-21T11:01:48;18.10;99.90
73277;DHT22;61501;43.316;5.372;2023-05-21T11:04:15;18.20;99.90
73277;DHT22;61501;43.316;5.372;2023-05-21T11:06:46;18.30;99.90
73277;DHT22;61501;43.316;5.372;2023-05-21T11:09:13;18.30;99.90
73277;DHT22;61501;43.316;5.372;2023-05-21T11:11:44;18.30;99.90
73277;DHT22;61501;43.316;5.372;2023-05-21T11:14:29;18.30;99.90
73277;DHT22;61501;43.316;5.372;2023-05-21T11:17:15;18.40;99.90
73277;DHT22;61501;43.316;5.372;2023-05-21T11:19:44;18.60;99.90
73277;DHT22;61501;43.316;5.372;2023-05-21T11:22:22;18.60;99.90
73277;DHT22;61501;43.316;5.372;2023-05-21T11:24:49;18.70;99.90
73277;DHT22;61501;43.316;5.372;2023-05-21T11:27:36;18.80;99.90
73277;DHT22;61501;43.316;5.372;2023-05-21T11:30:14;18.80;99.90
73277;DHT22;61501;43.316;5.372;2023-05-21T11:38:10;19.00;99.90
73277;DHT22;61501;43.316;5.372;2023-05-21T11:40:36;19.10;99.90
73277;DHT22;61501;43.316;5.372;2023-05-21T11:43:02;18.80;99.90
73277;DHT22;61501;43.316;5.372;2023-05-21T11:45:30;18.70;99.90
73277;DHT22;61501;43.316;5.372;2023-05-21T11:47:56;18.60;99.90
73277;DHT22;61501;43.316;5.372;2023-05-21T11:50:22;18.70;99.90
73277;DHT22;61501;43.316;5.372;2023-05-21T11:52:48;18.60;99.90
73277;DHT22;61501;43.316;5.372;2023-05-21T11:55:14;18.70;99.90
73277;DHT22;61501;43.316;5.372;2023-05-21T11:57:42;18.80;99.90
73277;DHT22;61501;43.316;5.372;2023-05-21T12:00:13;19.10;99.90
73277;DHT22;61501;43.316;5.372;2023-05-21T12:02:49;19.20;99.90
73277;DHT22;61501;43.316;5.372;2023-05-21T12:05:15;19.00;99.90
73277;DHT22;61501;43.316;5.372;2023-05-21T12:07:41;19.10;99.90
73277;DHT22;61501;43.316;5.372;2023-05-21T12:10:07;19.00;99.90
73277;DHT22;61501;43.316;5.372;2023-05-21T12:12:33;19.20;99.90
73277;DHT22;61501;43.316;5.372;2023-05-21T12:15:00;19.10;99.90
73277;DHT22;61501;43.316;5.372;2023-05-21T12:17:26;19.20;99.90
73277;DHT22;61501;43.316;5.372;2023-05-21T12:19:53;19.30;99.90
73277;DHT22;61501;43.316;5.372;2023-05-21T12:22:20;19.60;99.90
73277;DHT22;61501;43.316;5.372;2023-05-21T12:24:46;19.70;99.90
73277;DHT22;61501;43.316;5.372;2023-05-21T12:27:13;19.90;99.90
73277;DHT22;61501;43.316;5.372;2023-05-21T12:29:46;19.80;99.90
73277;DHT22;61501;43.316;5.372;2023-05-21T12:32:14;19.80;99.90
73277;DHT22;61501;43.316;5.372;2023-05-21T12:34:45;19.70;99.90
73277;DHT22;61501;43.316;5.372;2023-05-21T12:39:45;20.00;99.90
73277;DHT22;61501;43.316;5.372;2023-05-21T12:42:12;19.90;99.90
73277;DHT22;61501;43.316;5.372;2023-05-21T12:44:42;19.90;99.90
73277;DHT22;61501;43.316;5.372;2023-05-21T12:47:08;19.90;99.90
73277;DHT22;61501;43.316;5.372;2023-05-21T12:49:41;19.90;99.90
73277;DHT22;61501;43.316;5.372;2023-05-21T12:52:12;20.10;99.90
73277;DHT22;61501;43.316;5.372;2023-05-21T12:54:44;20.30;99.90
73277;DHT22;61501;43.316;5.372;2023-05-21T12:57:16;20.40;99.90
73277;DHT22;61501;43.316;5.372;2023-05-21T12:59:51;20.50;99.90
73277;DHT22;61501;43.316;5.372;2023-05-21T13:02:27;20.80;99.90
73277;DHT22;61501;43.316;5.372;2023-05-21T13:05:02;20.50;99.90
73277;DHT22;61501;43.316;5.372;2023-05-21T13:07:30;20.00;99.90
73277;DHT22;61501;43.316;5.372;2023-05-21T13:09:57;20.00;99.90
73277;DHT22;61501;43.316;5.372;2023-05-21T13:12:24;19.90;99.90
73277;DHT22;61501;43.316;5.372;2023-05-21T13:14:55;20.10;99.90
73277;DHT22;61501;43.316;5.372;2023-05-21T13:17:24;20.00;99.90
73277;DHT22;61501;43.316;5.372;2023-05-21T13:22:39;20.10;99.90
73277;DHT22;61501;43.316;5.372;2023-05-21T13:25:09;20.20;99.90
73277;DHT22;61501;43.316;5.372;2023-05-21T13:27:40;20.10;99.90
73277;DHT22;61501;43.316;5.372;2023-05-21T13:30:07;20.00;99.90
73277;DHT22;61501;43.316;5.372;2023-05-21T13:32:33;20.00;99.90
73277;DHT22;61501;43.316;5.372;2023-05-21T13:34:58;19.90;99.90
73277;DHT22;61501;43.316;5.372;2023-05-21T13:37:24;19.80;99.90
73277;DHT22;61501;43.316;5.372;2023-05-21T13:39:50;19.70;99.90
73277;DHT22;61501;43.316;5.372;2023-05-21T13:42:16;19.60;99.90
73277;DHT22;61501;43.316;5.372;2023-05-21T13:44:42;19.60;99.90
73277;DHT22;61501;43.316;5.372;2023-05-21T13:47:07;19.60;99.90
73277;DHT22;61501;43.316;5.372;2023-05-21T13:49:35;19.60;99.90
73277;DHT22;61501;43.316;5.372;2023-05-21T13:52:01;19.60;99.90
73277;DHT22;61501;43.316;5.372;2023-05-21T13:54:28;19.60;99.90
73277;DHT22;61501;43.316;5.372;2023-05-21T13:56:54;19.60;99.90
73277;DHT22;61501;43.316;5.372;2023-05-21T13:59:20;19.50;99.90
73277;DHT22;61501;43.316;5.372;2023-05-21T14:01:46;19.40;99.90
73277;DHT22;61501;43.316;5.372;2023-05-21T14:04:12;19.60;99.90
73277;DHT22;61501;43.316;5.372;2023-05-21T14:06:38;19.70;99.90
73277;DHT22;61501;43.316;5.372;2023-05-21T14:09:05;19.60;99.90
73277;DHT22;61501;43.316;5.372;2023-05-21T14:11:31;19.70;99.90
73277;DHT22;61501;43.316;5.372;2023-05-21T14:13:57;19.70;99.90
73277;DHT22;61501;43.316;5.372;2023-05-21T14:16:23;19.70;99.90
73277;DHT22;61501;43.316;5.372;2023-05-21T14:18:52;19.60;99.90
73277;DHT22;61501;43.316;5.372;2023-05-21T14:21:17;19.60;99.90
73277;DHT22;61501;43.316;5.372;2023-05-21T14:23:43;19.70;99.90
73277;DHT22;61501;43.316;5.372;2023-05-21T14:26:08;19.80;99.90
73277;DHT22;61501;43.316;5.372;2023-05-21T14:28:34;19.80;99.90
73277;DHT22;61501;43.316;5.372;2023-05-21T14:31:00;19.80;99.90
73277;DHT22;61501;43.316;5.372;2023-05-21T14:33:26;19.90;99.90
73277;DHT22;61501;43.316;5.372;2023-05-21T14:35:51;19.80;99.90
73277;DHT22;61501;43.316;5.372;2023-05-21T14:38:17;19.80;99.90
73277;DHT22;61501;43.316;5.372;2023-05-21T14:40:43;19.80;99.90
73277;DHT22;61501;43.316;5.372;2023-05-21T14:43:08;19.80;99.90
73277;DHT22;61501;43.316;5.372;2023-05-21T14:45:34;19.80;99.90
73277;DHT22;61501;43.316;5.372;2023-05-21T14:48:01;19.80;99.90
73277;DHT22;61501;43.316;5.372;2023-05-21T14:50:27;20.00;99.90
73277;DHT22;61501;43.316;5.372;2023-05-21T14:52:53;20.10;99.90
73277;DHT22;61501;43.316;5.372;2023-05-21T14:55:18;20.10;99.90
73277;DHT22;61501;43.316;5.372;2023-05-21T14:57:46;20.20;99.90
73277;DHT22;61501;43.316;5.372;2023-05-21T15:00:12;20.20;99.90
73277;DHT22;61501;43.316;5.372;2023-05-21T15:02:38;20.10;99.90
73277;DHT22;61501;43.316;5.372;2023-05-21T15:05:05;20.10;99.90
73277;DHT22;61501;43.316;5.372;2023-05-21T15:07:30;20.10;99.90
73277;DHT22;61501;43.316;5.372;2023-05-21T15:09:56;20.10;99.90
73277;DHT22;61501;43.316;5.372;2023-05-21T15:12:22;20.10;99.90
73277;DHT22;61501;43.316;5.372;2023-05-21T15:14:47;20.10;99.90
73277;DHT22;61501;43.316;5.372;2023-05-21T15:17:13;20.00;99.90
73277;DHT22;61501;43.316;5.372;2023-05-21T15:19:39;19.90;99.90
73277;DHT22;61501;43.316;5.372;2023-05-21T15:22:05;19.80;99.90
73277;DHT22;61501;43.316;5.372;2023-05-21T15:24:30;19.80;99.90
73277;DHT22;61501;43.316;5.372;2023-05-21T15:26:56;19.70;99.90
73277;DHT22;61501;43.316;5.372;2023-05-21T15:29:21;19.80;99.90
73277;DHT22;61501;43.316;5.372;2023-05-21T15:31:47;20.00;99.90
73277;DHT22;61501;43.316;5.372;2023-05-21T15:34:13;20.00;99.90
73277;DHT22;61501;43.316;5.372;2023-05-21T15:36:38;20.10;99.90
73277;DHT22;61501;43.316;5.372;2023-05-21T15:39:04;20.20;99.90
73277;DHT22;61501;43.316;5.372;2023-05-21T15:41:34;20.20;99.90
73277;DHT22;61501;43.316;5.372;2023-05-21T15:44:00;20.40;99.90
73277;DHT22;61501;43.316;5.372;2023-05-21T15:46:26;20.70;99.90
73277;DHT22;61501;43.316;5.372;2023-05-21T15:48:51;20.80;99.90
73277;DHT22;61501;43.316;5.372;2023-05-21T15:51:17;20.80;99.90
73277;DHT22;61501;43.316;5.372;2023-05-21T15:53:43;20.90;99.90
73277;DHT22;61501;43.316;5.372;2023-05-21T15:56:08;20.90;99.90
73277;DHT22;61501;43.316;5.372;2023-05-21T15:58:34;21.20;99.90
73277;DHT22;61501;43.316;5.372;2023-05-21T16:01:00;21.10;99.90
73277;DHT22;61501;43.316;5.372;2023-05-21T16:03:25;21.20;99.90
73277;DHT22;61501;43.316;5.372;2023-05-21T16:05:51;21.20;99.90
73277;DHT22;61501;43.316;5.372;2023-05-21T16:08:17;21.20;99.90
73277;DHT22;61501;43.316;5.372;2023-05-21T16:10:42;21.20;99.90
73277;DHT22;61501;43.316;5.372;2023-05-21T16:13:10;21.40;99.90
73277;DHT22;61501;43.316;5.372;2023-05-21T16:15:36;21.20;99.90
73277;DHT22;61501;43.316;5.372;2023-05-21T16:18:01;21.00;99.90
73277;DHT22;61501;43.316;5.372;2023-05-21T16:20:27;20.60;99.90